Time;durP1;ratioP1;P1;durP2;ratioP2;P2;SDS_P1;SDS_P2;PMS_P1;PMS_P2;Temp;Humidity;BMP_temperature;BMP_pressure;BME280_temperature;BME280_humidity;BME280_pressure;Samples;Min_cycle;Max_cycle;Signal;HPM_P1;HPM_P2
2022/10/23 00:01:37;;;;;;;24.27;9.35;;;10.50;99.90;;;;;;4992637;28;20073;-82
2022/10/23 00:04:11;;;;;;;28.70;9.88;;;10.50;99.90;;;;;;4975182;28;20052;-88
2022/10/23 00:06:37;;;;;;;24.48;9.80;;;10.50;99.90;;;;;;4974543;28;20068;-84
2022/10/23 00:09:05;;;;;;;22.70;7.65;;;10.50;99.90;;;;;;4992410;28;20058;-82
2022/10/23 00:11:33;;;;;;;30.80;10.82;;;10.50;99.90;;;;;;4991714;28;20054;-82
2022/10/23 00:14:01;;;;;;;27.08;11.48;;;10.50;99.90;;;;;;4999116;28;20133;-82
2022/10/23 00:16:28;;;;;;;26.25;11.48;;;10.40;99.90;;;;;;4992020;28;20058;-85
2022/10/23 00:18:54;;;;;;;24.42;8.40;;;10.40;99.90;;;;;;4974664;28;20046;-84
2022/10/23 00:21:20;;;;;;;29.80;8.73;;;10.40;99.90;;;;;;4991384;28;20053;-82
2022/10/23 00:23:46;;;;;;;22.33;8.95;;;10.40;99.90;;;;;;4958594;28;20050;-82
2022/10/23 00:26:15;;;;;;;22.88;8.40;;;10.40;99.90;;;;;;4977693;28;20054;-81
2022/10/23 00:28:43;;;;;;;21.05;10.32;;;10.40;99.90;;;;;;4993918;28;20046;-82
2022/10/23 00:31:09;;;;;;;20.08;8.77;;;10.40;99.90;;;;;;4977427;28;20060;-82
2022/10/23 00:33:36;;;;;;;24.73;10.02;;;10.40;99.90;;;;;;4979542;28;20117;-83
2022/10/23 00:36:08;;;;;;;18.70;8.93;;;10.40;99.90;;;;;;4980609;28;20593;-81
2022/10/23 00:38:35;;;;;;;18.92;8.10;;;10.40;99.90;;;;;;4978351;28;20092;-81
2022/10/23 00:41:01;;;;;;;29.80;10.23;;;10.40;99.90;;;;;;4977009;28;20050;-80
2022/10/23 00:43:29;;;;;;;26.52;10.05;;;10.40;99.90;;;;;;4994660;28;20061;-81
2022/10/23 00:45:56;;;;;;;23.65;9.90;;;10.30;99.90;;;;;;4994485;28;20050;-80
2022/10/23 00:48:26;;;;;;;30.88;11.00;;;10.30;99.90;;;;;;4998508;28;20446;-83
2022/10/23 00:50:52;;;;;;;27.83;10.13;;;10.30;99.90;;;;;;4977309;28;20093;-82
2022/10/23 00:53:19;;;;;;;35.92;12.75;;;10.30;99.90;;;;;;4994548;28;20058;-82
2022/10/23 00:55:49;;;;;;;35.78;12.00;;;10.30;99.90;;;;;;4994462;28;20645;-82
2022/10/23 00:58:20;;;;;;;26.75;11.13;;;10.30;99.90;;;;;;4994503;28;20062;-82
2022/10/23 01:00:51;;;;;;;36.72;13.95;;;10.30;99.90;;;;;;4977183;28;20060;-81
2022/10/23 01:03:20;;;;;;;25.17;10.55;;;10.30;99.90;;;;;;4977121;28;20131;-82
2022/10/23 01:05:52;;;;;;;22.83;10.93;;;10.20;99.90;;;;;;5007390;28;20089;-87
2022/10/23 01:08:41;;;;;;;30.38;11.35;;;10.20;99.90;;;;;;5014174;28;20120;-85
2022/10/23 01:11:14;;;;;;;36.40;14.05;;;10.20;99.90;;;;;;5013629;28;20054;-82
2022/10/23 01:13:48;;;;;;;27.70;12.70;;;10.20;99.90;;;;;;4996292;28;20050;-86
2022/10/23 01:16:29;;;;;;;36.25;12.35;;;10.20;99.90;;;;;;5014550;28;20831;-82
2022/10/23 01:19:21;;;;;;;26.50;11.75;;;10.10;99.90;;;;;;5014031;28;20374;-81
2022/10/23 01:22:19;;;;;;;31.90;12.18;;;10.10;99.90;;;;;;5013370;28;20104;-85
2022/10/23 01:24:56;;;;;;;29.80;10.73;;;10.10;99.90;;;;;;4970293;28;20050;-82
2022/10/23 01:27:29;;;;;;;30.58;14.15;;;10.10;99.90;;;;;;4995851;28;20520;-82
2022/10/23 01:29:58;;;;;;;34.22;12.60;;;10.10;99.90;;;;;;5013540;28;20042;-82
2022/10/23 01:32:36;;;;;;;20.50;10.15;;;10.10;99.90;;;;;;4997222;28;20476;-81
2022/10/23 01:35:33;;;;;;;32.13;12.35;;;10.00;99.90;;;;;;5014559;28;20065;-85
2022/10/23 01:38:19;;;;;;;23.13;11.77;;;10.00;99.90;;;;;;5016264;28;20056;-81
2022/10/23 01:40:51;;;;;;;26.40;11.45;;;10.00;99.90;;;;;;4996240;28;20056;-82
2022/10/23 01:43:24;;;;;;;26.08;13.10;;;10.00;99.90;;;;;;5013786;28;20057;-81
2022/10/23 01:45:55;;;;;;;29.58;14.52;;;10.00;99.90;;;;;;5013773;28;20406;-80
2022/10/23 01:48:26;;;;;;;34.55;13.90;;;10.00;99.90;;;;;;5013207;28;20064;-83
2022/10/23 01:50:55;;;;;;;31.25;15.00;;;10.00;99.90;;;;;;4996307;28;20085;-80
2022/10/23 01:53:24;;;;;;;27.63;12.05;;;10.00;99.90;;;;;;4980528;28;20050;-81
2022/10/23 01:55:52;;;;;;;37.05;15.05;;;10.00;99.90;;;;;;5013118;28;20049;-82
2022/10/23 01:58:20;;;;;;;40.42;15.82;;;10.00;99.90;;;;;;4995425;28;20145;-83
2022/10/23 02:00:48;;;;;;;34.90;14.77;;;10.00;99.90;;;;;;4979589;28;20060;-84
2022/10/23 02:03:16;;;;;;;30.10;16.08;;;10.00;99.90;;;;;;5013038;28;20082;-81
2022/10/23 02:05:43;;;;;;;39.08;15.95;;;10.00;99.90;;;;;;5013163;28;20053;-80
2022/10/23 02:08:09;;;;;;;38.25;16.30;;;10.00;99.90;;;;;;4979969;28;20397;-81
2022/10/23 02:10:51;;;;;;;34.10;15.77;;;10.00;99.90;;;;;;5014214;28;20050;-81
2022/10/23 02:13:20;;;;;;;35.88;16.45;;;10.00;99.90;;;;;;4996817;28;20494;-85
2022/10/23 02:16:02;;;;;;;33.60;16.10;;;10.00;99.90;;;;;;4997231;28;20041;-82
2022/10/23 02:18:37;;;;;;;47.42;16.20;;;10.10;99.90;;;;;;4996753;28;20061;-83
2022/10/23 02:21:11;;;;;;;42.92;18.38;;;10.10;99.90;;;;;;4998175;28;20120;-81
2022/10/23 02:24:27;;;;;;;42.08;17.63;;;10.10;99.90;;;;;;5001539;28;20060;-84
2022/10/23 02:26:56;;;;;;;45.45;19.23;;;10.10;99.90;;;;;;5002424;28;20110;-87
2022/10/23 02:29:29;;;;;;;42.33;17.90;;;10.00;99.90;;;;;;5019793;28;20057;-86
2022/10/23 02:31:55;;;;;;;40.97;18.77;;;10.00;99.90;;;;;;4999855;28;20057;-87
2022/10/23 02:34:22;;;;;;;47.63;19.67;;;10.00;99.90;;;;;;4999459;28;20058;-83
2022/10/23 02:36:48;;;;;;;33.70;16.10;;;10.00;99.90;;;;;;5014077;28;20068;-83
2022/10/23 02:39:14;;;;;;;41.88;18.98;;;10.00;99.90;;;;;;5012183;28;20695;-85
2022/10/23 02:41:54;;;;;;;37.92;17.75;;;10.00;99.90;;;;;;5013067;28;20124;-82
2022/10/23 02:44:57;;;;;;;32.28;15.10;;;10.00;99.90;;;;;;4999319;28;20046;-84
2022/10/23 02:47:52;;;;;;;28.58;14.75;;;10.00;99.90;;;;;;5012090;28;20162;-82
2022/10/23 02:50:57;;;;;;;37.78;18.17;;;10.00;99.90;;;;;;4995215;28;20061;-83
2022/10/23 02:53:35;;;;;;;25.55;14.45;;;10.00;99.90;;;;;;5013851;28;20566;-83
2022/10/23 02:56:05;;;;;;;37.85;18.33;;;10.00;99.90;;;;;;5011990;28;20054;-83
2022/10/23 02:58:45;;;;;;;39.08;17.13;;;10.00;99.90;;;;;;4994823;28;20049;-84
2022/10/23 03:01:18;;;;;;;35.65;17.60;;;9.90;99.90;;;;;;4997307;28;20402;-83
2022/10/23 03:03:59;;;;;;;34.40;18.33;;;9.90;99.90;;;;;;4994603;28;20073;-84
2022/10/23 03:06:25;;;;;;;51.95;21.40;;;10.00;99.90;;;;;;4994172;28;20522;-83
2022/10/23 03:08:52;;;;;;;47.70;19.20;;;9.90;99.90;;;;;;5012152;28;20085;-87
2022/10/23 03:11:18;;;;;;;38.95;19.65;;;9.90;99.90;;;;;;5012055;28;20069;-83
2022/10/23 03:13:44;;;;;;;33.83;16.08;;;10.00;99.90;;;;;;4995245;28;20054;-83
2022/10/23 03:16:10;;;;;;;45.88;20.58;;;9.90;99.90;;;;;;4977968;28;20080;-85
2022/10/23 03:18:36;;;;;;;31.02;17.58;;;9.90;99.90;;;;;;4979356;28;20136;-84
2022/10/23 03:21:02;;;;;;;29.52;17.35;;;9.90;99.90;;;;;;5015373;28;20080;-86
2022/10/23 03:23:28;;;;;;;43.03;21.20;;;9.90;99.90;;;;;;5015204;28;20104;-85
2022/10/23 03:25:54;;;;;;;42.70;19.42;;;9.90;99.90;;;;;;5005346;28;20077;-86
2022/10/23 03:28:21;;;;;;;33.80;18.33;;;9.90;99.90;;;;;;4981257;28;20469;-88
2022/10/23 03:30:50;;;;;;;39.50;20.70;;;9.90;99.90;;;;;;4963630;28;20050;-84
2022/10/23 03:33:16;;;;;;;38.67;19.23;;;9.90;99.90;;;;;;4996837;28;20142;-85
2022/10/23 03:35:42;;;;;;;34.38;19.42;;;9.90;99.90;;;;;;4962043;28;20089;-83
2022/10/23 03:38:07;;;;;;;36.63;18.05;;;9.90;99.90;;;;;;4976434;28;20093;-82
2022/10/23 03:40:33;;;;;;;37.92;20.98;;;9.90;99.90;;;;;;4982004;28;20062;-87
2022/10/23 03:42:59;;;;;;;44.90;21.75;;;9.90;99.90;;;;;;4981290;28;20054;-82
2022/10/23 03:45:25;;;;;;;37.72;18.75;;;9.90;99.90;;;;;;4980008;28;20061;-83
2022/10/23 03:47:51;;;;;;;40.05;20.63;;;9.90;99.90;;;;;;4977658;28;20054;-85
2022/10/23 03:50:18;;;;;;;49.05;22.20;;;9.90;99.90;;;;;;4993062;28;20085;-82
2022/10/23 03:52:44;;;;;;;44.60;22.98;;;9.90;99.90;;;;;;4995200;28;20093;-81
2022/10/23 03:55:11;;;;;;;37.83;19.20;;;9.90;99.90;;;;;;4975654;28;20050;-84
2022/10/23 03:57:37;;;;;;;43.25;20.90;;;9.90;99.90;;;;;;4974187;28;20166;-84
2022/10/23 04:00:05;;;;;;;51.20;23.73;;;9.90;99.90;;;;;;4997379;28;20069;-83
2022/10/23 04:02:31;;;;;;;40.70;22.55;;;9.90;99.90;;;;;;4980353;28;20054;-84
2022/10/23 04:04:57;;;;;;;33.85;19.92;;;9.90;99.90;;;;;;4997946;28;20409;-83
2022/10/23 04:07:23;;;;;;;35.67;19.08;;;9.90;99.90;;;;;;4999398;28;20054;-83
2022/10/23 04:09:49;;;;;;;37.45;19.65;;;9.90;99.90;;;;;;4980238;28;20054;-83
2022/10/23 04:12:15;;;;;;;40.83;22.80;;;9.90;99.90;;;;;;4997673;28;20053;-82
2022/10/23 04:14:41;;;;;;;43.10;21.95;;;9.90;99.90;;;;;;4980129;28;20089;-84
2022/10/23 04:17:07;;;;;;;46.33;23.55;;;9.90;99.90;;;;;;4980636;28;20050;-85
2022/10/23 04:19:33;;;;;;;37.70;22.73;;;9.90;99.90;;;;;;4980398;28;20517;-83
2022/10/23 04:21:59;;;;;;;41.60;23.17;;;10.10;99.90;;;;;;4999349;28;20065;-83
2022/10/23 04:24:25;;;;;;;47.33;23.60;;;10.10;99.90;;;;;;5010522;28;20049;-85
2022/10/23 04:26:51;;;;;;;45.00;24.45;;;10.10;99.90;;;;;;4999993;28;20072;-83
2022/10/23 04:29:20;;;;;;;43.40;23.20;;;10.00;99.90;;;;;;4985075;28;20141;-83
2022/10/23 04:31:45;;;;;;;49.22;25.20;;;10.10;99.90;;;;;;4999692;28;20501;-84
2022/10/23 04:34:11;;;;;;;43.95;22.20;;;10.10;99.90;;;;;;5017690;28;20057;-83
2022/10/23 04:36:37;;;;;;;34.13;21.65;;;10.10;99.90;;;;;;5000558;28;20066;-81
2022/10/23 04:39:03;;;;;;;31.30;19.80;;;10.10;99.90;;;;;;5018713;28;20073;-82
2022/10/23 04:41:29;;;;;;;48.75;24.00;;;10.10;99.90;;;;;;5017722;28;20058;-83
2022/10/23 04:43:54;;;;;;;41.58;21.63;;;10.00;99.90;;;;;;5017264;28;20093;-83
2022/10/23 04:46:20;;;;;;;41.17;23.13;;;10.10;99.90;;;;;;4999520;28;20081;-86
2022/10/23 04:48:46;;;;;;;43.60;23.77;;;10.10;99.90;;;;;;5017064;28;20045;-84
2022/10/23 04:51:12;;;;;;;49.78;24.58;;;10.10;99.90;;;;;;4999814;28;20060;-88
2022/10/23 04:53:38;;;;;;;45.60;23.92;;;10.10;99.90;;;;;;5000499;28;20409;-84
2022/10/23 04:56:05;;;;;;;42.42;24.45;;;10.10;99.90;;;;;;5001001;28;20081;-82
2022/10/23 04:58:31;;;;;;;45.75;23.35;;;10.10;99.90;;;;;;4999595;28;20057;-87
2022/10/23 05:00:57;;;;;;;46.65;25.20;;;10.10;99.90;;;;;;4999729;28;20056;-85
2022/10/23 05:03:24;;;;;;;39.17;22.55;;;10.10;99.90;;;;;;5000097;28;20049;-83
2022/10/23 05:05:55;;;;;;;41.20;22.25;;;10.10;99.90;;;;;;5017432;28;20084;-85
2022/10/23 05:08:21;;;;;;;50.28;26.25;;;10.10;99.90;;;;;;5021719;28;20366;-86
2022/10/23 05:10:48;;;;;;;41.33;23.17;;;10.20;99.90;;;;;;4984039;28;20129;-84
2022/10/23 05:13:18;;;;;;;58.47;27.70;;;10.10;99.90;;;;;;5014296;28;20065;-84
2022/10/23 05:15:46;;;;;;;55.08;26.55;;;10.20;99.90;;;;;;4996245;28;20064;-82
2022/10/23 05:18:22;;;;;;;53.00;26.80;;;10.10;99.90;;;;;;4996521;28;20061;-82
2022/10/23 05:20:50;;;;;;;53.53;26.70;;;10.20;99.90;;;;;;5014597;28;20049;-84
2022/10/23 05:23:19;;;;;;;52.10;26.05;;;10.20;99.90;;;;;;4981957;28;20078;-83
2022/10/23 05:25:45;;;;;;;47.25;23.92;;;10.20;99.90;;;;;;4999703;28;20060;-82
2022/10/23 05:28:11;;;;;;;46.75;25.85;;;10.20;99.90;;;;;;5018142;28;20129;-82
2022/10/23 05:30:38;;;;;;;52.55;26.85;;;10.20;99.90;;;;;;5014984;28;20050;-82
2022/10/23 05:33:04;;;;;;;53.95;27.45;;;10.20;99.90;;;;;;4997502;28;20058;-81
2022/10/23 05:35:30;;;;;;;50.70;27.17;;;10.20;99.90;;;;;;4996427;28;20133;-82
2022/10/23 05:37:58;;;;;;;49.33;25.10;;;10.30;99.90;;;;;;4995790;28;20576;-80
2022/10/23 05:40:24;;;;;;;49.00;25.55;;;10.30;99.90;;;;;;5016824;28;20791;-88
2022/10/23 05:42:50;;;;;;;55.90;25.10;;;10.30;99.90;;;;;;4995661;28;20116;-80
2022/10/23 05:45:16;;;;;;;47.40;26.30;;;10.30;99.90;;;;;;4994906;28;20057;-81
2022/10/23 05:47:46;;;;;;;47.78;26.17;;;10.30;99.90;;;;;;5013502;28;20085;-87
2022/10/23 05:50:12;;;;;;;46.22;24.95;;;10.30;99.90;;;;;;5013176;28;20057;-83
2022/10/23 05:52:37;;;;;;;46.22;24.05;;;10.30;99.90;;;;;;5013244;28;20061;-82
2022/10/23 05:55:04;;;;;;;50.20;26.70;;;10.30;99.90;;;;;;5012999;28;20885;-82
2022/10/23 05:57:33;;;;;;;43.05;25.15;;;10.30;99.90;;;;;;5015744;28;20070;-83
2022/10/23 05:59:59;;;;;;;53.88;25.48;;;10.30;99.90;;;;;;4996639;28;20041;-87
2022/10/23 06:02:25;;;;;;;53.05;26.75;;;10.30;99.90;;;;;;5013385;28;20042;-84
2022/10/23 06:04:50;;;;;;;51.05;25.23;;;10.30;99.90;;;;;;5016618;28;20490;-81
2022/10/23 06:07:21;;;;;;;50.72;25.98;;;10.30;99.90;;;;;;5017522;28;20085;-84
2022/10/23 06:09:47;;;;;;;48.38;25.48;;;10.30;99.90;;;;;;5019890;28;20053;-84
2022/10/23 06:12:13;;;;;;;43.08;24.13;;;10.20;99.90;;;;;;5000632;28;20054;-84
2022/10/23 06:14:39;;;;;;;43.30;25.13;;;10.20;99.90;;;;;;5016681;28;20081;-81
2022/10/23 06:17:05;;;;;;;48.97;24.83;;;10.20;99.90;;;;;;5013805;28;20081;-82
2022/10/23 06:19:30;;;;;;;51.10;25.42;;;10.20;99.90;;;;;;5014124;28;20050;-85
2022/10/23 06:21:56;;;;;;;46.67;24.85;;;10.20;99.90;;;;;;4995411;28;20046;-81
2022/10/23 06:24:22;;;;;;;44.03;22.67;;;10.20;99.90;;;;;;5013085;28;20054;-84
2022/10/23 06:26:48;;;;;;;45.53;25.08;;;10.10;99.90;;;;;;4996835;28;20056;-82
2022/10/23 06:29:14;;;;;;;56.30;25.75;;;10.10;99.90;;;;;;4996945;28;20053;-84
2022/10/23 06:31:40;;;;;;;53.40;25.20;;;10.10;99.90;;;;;;4994518;28;20050;-80
2022/10/23 06:34:08;;;;;;;46.85;26.65;;;10.10;99.90;;;;;;5011796;28;20458;-81
2022/10/23 06:36:34;;;;;;;41.75;24.45;;;10.20;99.90;;;;;;5012933;28;20142;-79
2022/10/23 06:39:00;;;;;;;44.83;27.23;;;10.20;99.90;;;;;;5013605;28;20072;-78
2022/10/23 06:41:26;;;;;;;48.22;26.42;;;10.20;99.90;;;;;;4995046;28;20046;-82
2022/10/23 06:43:52;;;;;;;46.85;25.52;;;10.20;99.90;;;;;;4980244;28;20049;-79
2022/10/23 06:46:18;;;;;;;47.97;25.75;;;10.30;99.90;;;;;;4993941;28;20077;-79
2022/10/23 06:48:44;;;;;;;50.08;26.60;;;10.40;99.90;;;;;;4978889;28;20061;-80
2022/10/23 06:51:13;;;;;;;53.42;27.73;;;10.40;99.90;;;;;;4994623;28;20050;-79
2022/10/23 06:53:39;;;;;;;48.80;26.35;;;10.40;99.90;;;;;;4993893;28;20079;-80
2022/10/23 06:56:07;;;;;;;47.60;24.73;;;10.40;99.90;;;;;;5012349;28;20099;-81
2022/10/23 06:58:34;;;;;;;57.25;27.17;;;10.50;99.90;;;;;;5015783;28;20092;-82
2022/10/23 07:01:05;;;;;;;44.38;24.42;;;10.50;99.90;;;;;;5016866;28;20413;-81
2022/10/23 07:03:33;;;;;;;52.08;26.70;;;10.50;99.90;;;;;;5016065;28;20160;-80
2022/10/23 07:06:01;;;;;;;48.45;25.42;;;10.50;99.90;;;;;;5016864;28;20081;-81
2022/10/23 07:08:27;;;;;;;43.22;24.83;;;10.50;99.90;;;;;;5016380;28;20050;-79
2022/10/23 07:10:53;;;;;;;42.50;24.45;;;10.50;99.90;;;;;;4984218;28;20065;-78
2022/10/23 07:13:21;;;;;;;44.53;25.08;;;10.50;99.90;;;;;;4989908;28;20051;-77
2022/10/23 07:15:47;;;;;;;53.88;26.90;;;10.50;99.90;;;;;;4988191;28;20046;-78
2022/10/23 07:18:15;;;;;;;40.30;25.95;;;10.50;99.90;;;;;;4980942;28;20051;-82
2022/10/23 07:20:42;;;;;;;41.88;24.65;;;10.60;99.90;;;;;;4974614;28;20047;-82
2022/10/23 07:23:10;;;;;;;48.65;26.52;;;10.60;99.90;;;;;;4972545;28;20058;-78
2022/10/23 07:25:36;;;;;;;47.13;26.45;;;10.60;99.90;;;;;;4974000;28;20051;-78
2022/10/23 07:28:05;;;;;;;43.00;25.08;;;10.60;99.90;;;;;;4954584;28;20051;-78
2022/10/23 07:30:31;;;;;;;45.03;26.70;;;10.70;99.90;;;;;;4971567;28;20073;-79
2022/10/23 07:32:57;;;;;;;45.40;24.48;;;10.70;99.90;;;;;;4973175;28;20055;-78
2022/10/23 07:35:23;;;;;;;43.85;24.63;;;10.70;99.90;;;;;;4955533;28;20054;-80
2022/10/23 07:37:49;;;;;;;48.53;25.58;;;10.80;99.90;;;;;;4940779;28;20054;-80
2022/10/23 07:40:16;;;;;;;44.90;26.17;;;10.80;99.90;;;;;;4976674;28;20446;-81
2022/10/23 07:42:42;;;;;;;44.47;24.67;;;10.90;99.90;;;;;;4985500;28;20061;-78
2022/10/23 07:45:08;;;;;;;41.63;25.25;;;10.90;99.90;;;;;;4983819;28;20134;-84
2022/10/23 07:47:34;;;;;;;48.22;24.00;;;10.90;99.90;;;;;;4983298;28;20088;-81
2022/10/23 07:50:00;;;;;;;39.92;23.25;;;11.00;99.90;;;;;;4966824;28;20088;-80
2022/10/23 07:52:26;;;;;;;43.95;24.05;;;11.00;99.90;;;;;;4982992;28;20075;-81
2022/10/23 07:54:52;;;;;;;45.75;23.80;;;11.00;99.90;;;;;;4952901;28;20057;-85
2022/10/23 07:57:19;;;;;;;38.25;22.02;;;11.10;99.90;;;;;;4966950;28;20059;-83
2022/10/23 07:59:45;;;;;;;37.28;21.85;;;11.10;99.90;;;;;;4973039;28;20142;-85
2022/10/23 08:02:12;;;;;;;36.75;22.23;;;11.20;99.90;;;;;;4973159;28;20042;-78
2022/10/23 08:04:39;;;;;;;43.20;23.75;;;11.20;99.90;;;;;;4951118;28;20055;-78
2022/10/23 08:07:05;;;;;;;43.53;23.40;;;11.30;99.90;;;;;;4961595;28;20047;-77
2022/10/23 08:09:33;;;;;;;45.78;23.33;;;11.30;99.90;;;;;;4975790;28;20114;-80
2022/10/23 08:12:00;;;;;;;40.83;20.40;;;11.40;99.90;;;;;;4958730;28;20057;-81
2022/10/23 08:14:26;;;;;;;42.03;22.50;;;11.50;99.90;;;;;;4973402;28;20053;-77
2022/10/23 08:16:53;;;;;;;34.63;20.70;;;11.50;99.90;;;;;;4943818;28;20050;-88
2022/10/23 08:19:18;;;;;;;34.67;20.42;;;11.60;99.90;;;;;;4960981;28;20061;-81
2022/10/23 08:21:45;;;;;;;33.28;19.60;;;11.60;99.90;;;;;;4973730;28;20491;-77
2022/10/23 08:24:14;;;;;;;36.75;19.98;;;11.70;99.90;;;;;;4955375;28;20056;-84
2022/10/23 08:26:40;;;;;;;34.85;19.48;;;11.80;99.90;;;;;;4958855;28;20054;-86
2022/10/23 08:29:06;;;;;;;34.40;19.73;;;11.80;99.90;;;;;;4966423;28;20046;-79
2022/10/23 08:31:32;;;;;;;32.30;19.08;;;11.90;99.90;;;;;;4979280;28;20073;-80
2022/10/23 08:33:58;;;;;;;35.65;17.00;;;12.00;99.90;;;;;;4960301;28;20097;-85
2022/10/23 08:36:26;;;;;;;36.28;18.50;;;12.00;99.90;;;;;;4964691;28;20134;-79
2022/10/23 08:38:56;;;;;;;35.88;18.02;;;12.10;99.90;;;;;;4983905;28;20086;-82
2022/10/23 08:41:26;;;;;;;32.60;18.00;;;12.20;99.90;;;;;;4961705;28;20419;-85
2022/10/23 08:44:16;;;;;;;29.95;17.35;;;12.30;99.90;;;;;;4979360;28;20050;-82
2022/10/23 08:46:47;;;;;;;26.33;15.45;;;12.30;99.90;;;;;;4984068;28;20814;-84
2022/10/23 08:49:31;;;;;;;34.05;16.48;;;12.40;99.90;;;;;;4984217;28;20046;-84
2022/10/23 08:52:01;;;;;;;33.10;18.95;;;12.50;99.90;;;;;;4987783;28;20585;-83
2022/10/23 08:54:52;;;;;;;26.63;16.13;;;12.50;99.90;;;;;;4986131;28;20054;-80
2022/10/23 08:57:22;;;;;;;27.45;15.05;;;12.60;99.90;;;;;;4966956;28;20105;-85
2022/10/23 08:59:58;;;;;;;25.73;14.57;;;12.60;99.90;;;;;;4969975;28;20157;-79
2022/10/23 09:02:41;;;;;;;29.42;14.70;;;12.60;99.90;;;;;;4965934;28;20426;-83
2022/10/23 09:05:14;;;;;;;25.15;14.25;;;12.70;99.90;;;;;;4973838;28;20053;-83
2022/10/23 09:07:51;;;;;;;27.57;15.23;;;12.80;99.90;;;;;;4972897;28;20057;-80
2022/10/23 09:10:36;;;;;;;28.63;14.82;;;12.90;99.90;;;;;;4986166;28;20309;-80
2022/10/23 09:13:25;;;;;;;22.65;13.98;;;12.90;99.90;;;;;;4983196;28;20054;-81
2022/10/23 09:16:13;;;;;;;24.98;13.60;;;13.00;99.90;;;;;;4967641;28;20050;-78
2022/10/23 09:18:41;;;;;;;20.25;13.75;;;13.10;99.90;;;;;;4965971;28;20057;-77
2022/10/23 09:21:10;;;;;;;20.30;13.23;;;13.10;99.90;;;;;;4985826;28;20135;-79
2022/10/23 09:23:39;;;;;;;21.75;12.93;;;13.20;99.90;;;;;;4983796;28;20046;-79
2022/10/23 09:26:15;;;;;;;23.55;12.10;;;13.30;99.90;;;;;;4985199;28;20126;-79
2022/10/23 09:28:48;;;;;;;20.92;13.27;;;13.30;99.90;;;;;;4983181;28;20046;-79
2022/10/23 09:31:15;;;;;;;24.65;13.35;;;13.40;99.90;;;;;;4950176;28;20054;-79
2022/10/23 09:33:59;;;;;;;21.60;13.20;;;13.50;99.90;;;;;;4983024;28;20105;-81
2022/10/23 09:36:28;;;;;;;19.42;12.07;;;13.60;99.90;;;;;;4969197;28;20097;-79
2022/10/23 09:39:00;;;;;;;30.98;13.20;;;13.60;99.90;;;;;;4967149;28;20058;-77
2022/10/23 09:41:35;;;;;;;24.10;13.48;;;13.80;99.90;;;;;;4984189;28;20068;-79
2022/10/23 09:44:21;;;;;;;20.55;11.93;;;13.80;99.90;;;;;;4961450;28;20073;-80
2022/10/23 09:46:53;;;;;;;18.17;10.35;;;13.90;99.90;;;;;;4963984;28;20130;-82
2022/10/23 09:49:19;;;;;;;20.83;11.68;;;14.00;99.90;;;;;;4982881;28;20137;-78
2022/10/23 09:52:03;;;;;;;22.80;10.80;;;14.00;99.90;;;;;;4981851;28;20078;-79
2022/10/23 09:54:33;;;;;;;20.10;10.87;;;14.10;99.90;;;;;;4977817;28;20047;-79
2022/10/23 09:57:15;;;;;;;18.02;10.93;;;14.30;99.90;;;;;;4980796;28;20081;-81
2022/10/23 09:59:41;;;;;;;18.35;10.82;;;14.30;99.90;;;;;;4981599;28;20050;-79
2022/10/23 10:02:35;;;;;;;18.58;10.88;;;14.30;99.90;;;;;;4983482;28;20049;-80
2022/10/23 10:05:22;;;;;;;17.20;9.95;;;14.40;99.90;;;;;;4997339;28;20520;-80
2022/10/23 10:08:32;;;;;;;20.77;11.07;;;14.40;99.90;;;;;;4991369;28;20055;-82
2022/10/23 10:11:16;;;;;;;21.25;9.75;;;14.50;99.90;;;;;;4967861;28;20058;-79
2022/10/23 10:14:06;;;;;;;18.07;9.67;;;14.50;99.90;;;;;;4984112;28;20049;-82
2022/10/23 10:16:55;;;;;;;19.88;10.45;;;14.50;99.90;;;;;;5003819;28;20517;-82
2022/10/23 10:20:03;;;;;;;17.70;10.05;;;14.50;99.90;;;;;;4999706;28;20128;-79
2022/10/23 10:22:39;;;;;;;22.83;9.93;;;14.50;99.90;;;;;;4969837;28;20054;-80
2022/10/23 10:25:34;;;;;;;19.60;9.48;;;14.60;99.90;;;;;;5000714;28;20050;-77
2022/10/23 10:28:23;;;;;;;16.35;8.57;;;14.60;99.90;;;;;;4983947;28;20132;-82
2022/10/23 10:31:01;;;;;;;16.35;9.18;;;14.70;99.90;;;;;;4948199;28;20065;-78
2022/10/23 10:33:38;;;;;;;17.65;8.68;;;14.70;99.90;;;;;;5014711;28;20129;-83
2022/10/23 10:36:27;;;;;;;18.25;10.05;;;14.80;99.90;;;;;;4984439;28;20145;-87
2022/10/23 10:39:00;;;;;;;16.88;9.07;;;14.90;99.90;;;;;;4984457;28;20165;-84
2022/10/23 10:41:26;;;;;;;16.48;9.48;;;15.00;99.90;;;;;;5003585;28;20454;-85
2022/10/23 10:44:06;;;;;;;19.15;9.07;;;15.00;99.90;;;;;;4970081;28;20046;-82
2022/10/23 10:46:42;;;;;;;15.55;8.32;;;15.10;99.90;;;;;;4983426;28;20050;-78
2022/10/23 10:49:23;;;;;;;14.52;8.52;;;15.20;99.90;;;;;;4996105;28;20077;-79
2022/10/23 10:52:10;;;;;;;15.43;8.27;;;15.30;99.90;;;;;;4996169;28;20104;-83
2022/10/23 10:55:04;;;;;;;17.20;8.05;;;15.40;99.90;;;;;;4981234;28;20057;-82
2022/10/23 10:57:39;;;;;;;14.15;8.82;;;15.40;99.90;;;;;;4992826;28;20109;-79
2022/10/23 11:00:14;;;;;;;15.88;7.63;;;15.50;99.90;;;;;;4976984;28;20147;-86
2022/10/23 11:03:09;;;;;;;16.95;8.57;;;15.50;99.90;;;;;;4982522;28;20058;-82
2022/10/23 11:05:41;;;;;;;15.70;7.95;;;15.70;99.90;;;;;;4997435;28;20081;-91
2022/10/23 11:08:15;;;;;;;13.32;7.90;;;15.80;99.90;;;;;;4974691;28;20556;-78
2022/10/23 11:10:47;;;;;;;17.17;7.32;;;15.80;99.90;;;;;;4993784;28;20046;-78
2022/10/23 11:13:35;;;;;;;11.35;7.18;;;15.90;99.90;;;;;;4982543;28;20050;-79
2022/10/23 11:16:16;;;;;;;11.93;6.47;;;15.90;99.90;;;;;;4997041;28;20046;-82
2022/10/23 11:18:49;;;;;;;14.50;6.78;;;15.90;99.90;;;;;;4999419;28;20054;-78
2022/10/23 11:21:32;;;;;;;13.68;6.70;;;15.90;99.90;;;;;;4984885;28;20458;-80
2022/10/23 11:24:08;;;;;;;14.82;5.72;;;15.90;99.90;;;;;;5007965;28;20406;-76
2022/10/23 11:26:56;;;;;;;12.07;6.88;;;15.90;99.90;;;;;;5005314;28;20125;-78
2022/10/23 11:29:44;;;;;;;12.32;6.70;;;15.90;99.90;;;;;;5001395;28;20101;-78
2022/10/23 11:32:53;;;;;;;14.85;6.30;;;15.90;99.90;;;;;;5000071;28;20081;-83
2022/10/23 11:35:23;;;;;;;12.50;6.28;;;16.00;99.90;;;;;;5002357;28;20128;-85
2022/10/23 11:38:07;;;;;;;15.65;6.72;;;16.00;99.90;;;;;;4989253;28;20071;-80
2022/10/23 11:40:34;;;;;;;16.00;7.45;;;16.00;99.90;;;;;;4998572;28;20066;-79
2022/10/23 11:43:00;;;;;;;10.43;5.68;;;16.00;99.90;;;;;;4959361;28;20482;-80
2022/10/23 11:45:39;;;;;;;12.07;6.55;;;16.10;99.90;;;;;;4991788;28;20058;-80
2022/10/23 11:48:24;;;;;;;12.38;6.75;;;16.10;99.90;;;;;;4992246;28;20077;-78
2022/10/23 11:50:54;;;;;;;9.90;5.63;;;16.10;99.90;;;;;;4992068;28;20097;-79
2022/10/23 11:53:32;;;;;;;12.98;5.90;;;16.20;99.90;;;;;;4992964;28;20047;-78
2022/10/23 11:56:22;;;;;;;16.98;5.75;;;16.20;99.90;;;;;;4959279;28;20062;-85
2022/10/23 11:58:57;;;;;;;12.55;5.35;;;16.20;99.90;;;;;;4962294;28;20149;-81
2022/10/23 12:01:41;;;;;;;13.18;5.88;;;16.30;99.90;;;;;;4992955;28;20054;-80
2022/10/23 12:04:13;;;;;;;13.63;5.38;;;16.30;99.90;;;;;;4974221;28;20054;-83
2022/10/23 12:06:43;;;;;;;11.77;6.03;;;16.40;99.90;;;;;;4992864;28;20053;-84
2022/10/23 12:09:36;;;;;;;12.52;4.75;;;16.40;99.90;;;;;;4992264;28;20062;-81
2022/10/23 12:12:08;;;;;;;9.05;5.13;;;16.40;99.90;;;;;;4992624;28;20461;-79
2022/10/23 12:14:44;;;;;;;9.25;4.70;;;16.40;99.90;;;;;;4993854;28;20094;-84
2022/10/23 12:17:22;;;;;;;13.85;4.93;;;16.50;99.90;;;;;;4992279;28;20082;-85
2022/10/23 12:20:01;;;;;;;10.38;5.35;;;16.40;99.90;;;;;;4975652;28;20150;-86
2022/10/23 12:22:39;;;;;;;12.68;5.70;;;16.40;99.90;;;;;;4999333;28;20107;-82
2022/10/23 12:25:12;;;;;;;12.50;4.68;;;16.40;99.90;;;;;;4999867;28;20061;-83
2022/10/23 12:27:59;;;;;;;8.57;4.22;;;16.40;99.90;;;;;;4979293;28;20054;-82
2022/10/23 12:30:44;;;;;;;8.32;4.07;;;16.30;99.90;;;;;;4999317;28;20050;-83
2022/10/23 12:33:29;;;;;;;11.90;4.82;;;16.30;99.90;;;;;;4980002;28;20046;-87
2022/10/23 12:36:35;;;;;;;8.65;4.07;;;16.30;99.90;;;;;;4996876;28;20054;-80
2022/10/23 12:39:01;;;;;;;11.32;4.72;;;16.30;99.90;;;;;;4967155;28;20057;-81
2022/10/23 12:41:30;;;;;;;10.38;4.45;;;16.40;99.90;;;;;;4961531;28;20050;-81
2022/10/23 12:44:00;;;;;;;10.70;4.82;;;16.30;99.90;;;;;;4995544;28;20065;-79
2022/10/23 12:46:40;;;;;;;10.40;3.95;;;16.20;99.90;;;;;;4995774;28;20047;-83
2022/10/23 12:49:18;;;;;;;10.82;4.60;;;16.20;99.90;;;;;;4998028;28;20521;-81
2022/10/23 12:51:45;;;;;;;11.60;4.90;;;16.10;99.90;;;;;;4998258;28;20181;-82
2022/10/23 12:54:37;;;;;;;10.38;4.13;;;16.10;99.90;;;;;;4993799;28;20085;-83
2022/10/23 12:57:20;;;;;;;9.82;4.53;;;16.10;99.90;;;;;;4975096;28;20082;-80